Time;durP1;ratioP1;P1;durP2;ratioP2;P2;SDS_P1;SDS_P2;PMS_P1;PMS_P2;Temp;Humidity;BMP_temperature;BMP_pressure;BME280_temperature;BME280_humidity;BME280_pressure;Samples;Min_cycle;Max_cycle;Signal;HPM_P1;HPM_P2
2024/01/03 00:01:38;;;;;;;17.52;2.40;;;;;;;;;;5023961;28;20189;-78
2024/01/03 00:04:05;;;;;;;24.25;2.97;;;;;;;;;;5032521;28;20218;-78
2024/01/03 00:06:33;;;;;;;24.00;2.53;;;;;;;;;;5032226;28;20196;-78
2024/01/03 00:08:59;;;;;;;16.88;2.80;;;;;;;;;;4993102;28;20178;-77
2024/01/03 00:11:29;;;;;;;14.50;2.65;;;;;;;;;;4997002;28;20226;-78
2024/01/03 00:14:12;;;;;;;22.45;2.85;;;;;;;;;;5014292;28;20256;-77
2024/01/03 00:16:39;;;;;;;22.13;2.33;;;;;;;;;;4996989;28;20677;-75
2024/01/03 00:19:06;;;;;;;21.52;3.15;;;;;;;;;;4996574;28;20296;-77
2024/01/03 00:21:33;;;;;;;15.40;3.13;;;;;;;;;;5029857;28;20769;-76
2024/01/03 00:24:03;;;;;;;20.00;2.25;;;;;;;;;;5026502;28;20186;-79
2024/01/03 00:26:30;;;;;;;16.38;2.22;;;;;;;;;;5027117;28;20189;-78
2024/01/03 00:28:57;;;;;;;19.73;2.30;;;;;;;;;;5026241;28;20620;-77
2024/01/03 00:31:35;;;;;;;15.15;2.03;;;;;;;;;;5027677;28;20673;-77
2024/01/03 00:34:02;;;;;;;15.90;2.28;;;;;;;;;;5028571;28;20194;-77
2024/01/03 00:36:28;;;;;;;21.83;2.70;;;;;;;;;;4997754;28;20186;-75
2024/01/03 00:38:54;;;;;;;17.27;2.40;;;;;;;;;;5012013;28;20197;-77
2024/01/03 00:41:19;;;;;;;17.35;2.47;;;;;;;;;;5022229;28;20213;-76
2024/01/03 00:43:44;;;;;;;17.00;2.92;;;;;;;;;;5022843;28;20248;-77
2024/01/03 00:46:11;;;;;;;16.58;2.30;;;;;;;;;;5012907;28;20617;-77
2024/01/03 00:48:37;;;;;;;21.52;2.67;;;;;;;;;;5026070;28;20204;-76
2024/01/03 00:51:03;;;;;;;12.63;2.30;;;;;;;;;;4993724;28;20583;-76
2024/01/03 00:53:30;;;;;;;12.07;1.80;;;;;;;;;;5031829;28;20198;-78
2024/01/03 00:55:55;;;;;;;7.35;1.92;;;;;;;;;;5023451;28;20233;-76
2024/01/03 00:58:21;;;;;;;6.45;1.00;;;;;;;;;;5014958;28;20685;-76
2024/01/03 01:00:48;;;;;;;8.48;1.05;;;;;;;;;;5018117;28;21007;-76
2024/01/03 01:03:13;;;;;;;8.15;1.48;;;;;;;;;;5031650;28;20182;-78
2024/01/03 01:05:40;;;;;;;8.93;1.08;;;;;;;;;;5009045;28;20286;-77
2024/01/03 01:08:06;;;;;;;2.65;0.50;;;;;;;;;;5027411;28;20193;-78
2024/01/03 01:10:31;;;;;;;3.50;0.63;;;;;;;;;;5032191;28;20542;-78
2024/01/03 01:12:57;;;;;;;4.97;0.68;;;;;;;;;;4994366;28;20179;-76
2024/01/03 01:15:22;;;;;;;4.18;0.57;;;;;;;;;;5028008;28;20197;-78
2024/01/03 01:17:48;;;;;;;5.72;0.80;;;;;;;;;;5032495;28;20182;-75
2024/01/03 01:20:13;;;;;;;3.88;0.93;;;;;;;;;;5030195;28;20321;-78
2024/01/03 01:22:40;;;;;;;8.73;1.60;;;;;;;;;;5014127;28;20198;-80
2024/01/03 01:25:07;;;;;;;3.25;0.60;;;;;;;;;;5036438;28;20190;-78
2024/01/03 01:27:32;;;;;;;7.55;1.35;;;;;;;;;;5015363;28;20249;-79
2024/01/03 01:29:58;;;;;;;5.43;1.20;;;;;;;;;;5027479;28;20190;-79
2024/01/03 01:32:23;;;;;;;4.50;0.80;;;;;;;;;;5033947;28;20186;-77
2024/01/03 01:34:48;;;;;;;7.72;1.08;;;;;;;;;;5000261;28;20232;-78
2024/01/03 01:37:14;;;;;;;8.00;1.15;;;;;;;;;;5031005;28;20614;-79
2024/01/03 01:39:40;;;;;;;7.18;1.25;;;;;;;;;;5036379;28;20190;-79
2024/01/03 01:42:06;;;;;;;9.45;1.20;;;;;;;;;;5023232;28;20198;-78
2024/01/03 01:44:31;;;;;;;11.00;1.70;;;;;;;;;;5034258;28;20208;-79
2024/01/03 01:46:57;;;;;;;14.35;2.00;;;;;;;;;;5012004;28;20186;-79
2024/01/03 01:49:24;;;;;;;11.15;1.70;;;;;;;;;;5033531;28;20186;-78
2024/01/03 01:51:50;;;;;;;17.08;2.05;;;;;;;;;;5018655;28;20283;-78
2024/01/03 01:54:17;;;;;;;12.25;1.80;;;;;;;;;;5013247;28;20198;-79
2024/01/03 01:56:43;;;;;;;11.82;1.88;;;;;;;;;;5001172;28;20187;-78
2024/01/03 01:59:10;;;;;;;12.52;1.90;;;;;;;;;;5027964;28;20507;-78
2024/01/03 02:01:35;;;;;;;9.43;1.63;;;;;;;;;;5022328;28;20206;-78
2024/01/03 02:04:04;;;;;;;9.48;1.50;;;;;;;;;;5027752;28;20213;-78
2024/01/03 02:06:30;;;;;;;10.15;1.48;;;;;;;;;;5022553;28;20240;-78
2024/01/03 02:08:56;;;;;;;9.05;1.63;;;;;;;;;;5026641;28;20183;-78
2024/01/03 02:11:21;;;;;;;9.93;1.45;;;;;;;;;;5025077;28;20256;-78
2024/01/03 02:13:46;;;;;;;11.90;2.13;;;;;;;;;;5029539;28;20228;-79
2024/01/03 02:16:12;;;;;;;9.52;2.08;;;;;;;;;;5028470;28;20228;-78
2024/01/03 02:18:39;;;;;;;14.25;2.40;;;;;;;;;;5001653;28;20581;-78
2024/01/03 02:21:12;;;;;;;14.13;2.00;;;;;;;;;;5019941;28;20230;-79
2024/01/03 02:23:37;;;;;;;17.35;2.55;;;;;;;;;;5028972;28;20254;-76
2024/01/03 02:26:03;;;;;;;19.27;2.05;;;;;;;;;;5009930;28;20236;-78
2024/01/03 02:28:28;;;;;;;17.13;2.80;;;;;;;;;;5017377;28;20192;-78
2024/01/03 02:30:55;;;;;;;20.00;2.38;;;;;;;;;;5024182;28;20257;-79
2024/01/03 02:33:20;;;;;;;20.48;2.67;;;;;;;;;;5004756;28;20622;-78
2024/01/03 02:35:46;;;;;;;23.35;3.08;;;;;;;;;;5005831;28;20621;-76
2024/01/03 02:38:11;;;;;;;27.27;4.05;;;;;;;;;;5004199;28;20336;-77
2024/01/03 02:40:37;;;;;;;25.27;2.75;;;;;;;;;;5005761;28;20183;-77
2024/01/03 02:43:02;;;;;;;29.65;4.32;;;;;;;;;;4993827;28;20231;-78
2024/01/03 02:45:28;;;;;;;30.02;3.38;;;;;;;;;;5007659;28;20528;-77
2024/01/03 02:47:54;;;;;;;19.95;3.47;;;;;;;;;;5011265;28;20224;-78
2024/01/03 02:50:20;;;;;;;20.63;3.17;;;;;;;;;;5023893;28;20229;-77
2024/01/03 02:52:45;;;;;;;26.40;3.05;;;;;;;;;;5003728;28;20188;-77
2024/01/03 02:55:10;;;;;;;30.60;3.40;;;;;;;;;;5003749;28;20702;-76
2024/01/03 02:57:36;;;;;;;22.48;2.72;;;;;;;;;;5003806;28;20186;-76
2024/01/03 03:00:02;;;;;;;22.88;2.63;;;;;;;;;;4998684;28;20964;-75
2024/01/03 03:02:28;;;;;;;25.33;3.15;;;;;;;;;;5012546;28;20324;-75
2024/01/03 03:04:53;;;;;;;22.60;3.75;;;;;;;;;;5009060;28;20267;-76
2024/01/03 03:07:19;;;;;;;19.10;2.85;;;;;;;;;;4989857;28;20191;-77
2024/01/03 03:09:44;;;;;;;25.50;4.22;;;;;;;;;;5007945;28;20253;-76
2024/01/03 03:12:09;;;;;;;17.83;2.95;;;;;;;;;;5004708;28;20257;-76
2024/01/03 03:14:35;;;;;;;21.73;3.05;;;;;;;;;;4996331;28;20190;-76
2024/01/03 03:17:00;;;;;;;19.67;2.45;;;;;;;;;;5001679;28;20547;-76
2024/01/03 03:19:26;;;;;;;25.77;3.85;;;;;;;;;;5003956;28;20222;-76
2024/01/03 03:21:51;;;;;;;23.17;3.25;;;;;;;;;;4995580;28;20223;-76
2024/01/03 03:24:17;;;;;;;27.67;3.38;;;;;;;;;;5002530;28;20256;-77
2024/01/03 03:26:42;;;;;;;18.98;2.60;;;;;;;;;;5006493;28;20539;-78
2024/01/03 03:29:08;;;;;;;24.20;3.38;;;;;;;;;;5003938;28;20187;-76
2024/01/03 03:31:33;;;;;;;22.65;3.72;;;;;;;;;;5003472;28;20710;-75
2024/01/03 03:33:59;;;;;;;21.45;3.15;;;;;;;;;;5004865;28;20748;-75
2024/01/03 03:36:24;;;;;;;22.10;3.53;;;;;;;;;;5012510;28;20295;-75
2024/01/03 03:38:49;;;;;;;22.73;3.97;;;;;;;;;;5006037;28;20268;-75
2024/01/03 03:41:15;;;;;;;32.70;3.97;;;;;;;;;;5006973;28;20187;-75
2024/01/03 03:43:40;;;;;;;19.73;3.78;;;;;;;;;;5010036;28;20214;-76
2024/01/03 03:46:07;;;;;;;17.40;3.05;;;;;;;;;;5006783;28;23020;-75
2024/01/03 03:48:33;;;;;;;25.95;3.58;;;;;;;;;;4994286;28;20313;-76
2024/01/03 03:51:00;;;;;;;26.48;3.00;;;;;;;;;;4984564;28;20293;-76
2024/01/03 03:53:25;;;;;;;23.50;4.45;;;;;;;;;;5004712;28;20307;-76
2024/01/03 03:55:50;;;;;;;21.13;2.83;;;;;;;;;;5007789;28;20273;-76
2024/01/03 03:58:16;;;;;;;21.65;3.55;;;;;;;;;;5011252;28;20626;-76
2024/01/03 04:00:41;;;;;;;15.10;3.00;;;;;;;;;;5009605;28;20195;-77
2024/01/03 04:03:08;;;;;;;18.42;2.33;;;;;;;;;;5023578;28;20544;-76
2024/01/03 04:05:37;;;;;;;23.38;3.78;;;;;;;;;;5010612;28;20194;-76
2024/01/03 04:08:03;;;;;;;19.02;2.95;;;;;;;;;;5011540;28;20191;-76
2024/01/03 04:10:29;;;;;;;21.80;2.92;;;;;;;;;;5022597;28;20213;-75
2024/01/03 04:12:55;;;;;;;15.65;2.58;;;;;;;;;;5008831;28;20198;-77
2024/01/03 04:15:24;;;;;;;14.40;2.75;;;;;;;;;;5009902;28;20191;-76
2024/01/03 04:17:50;;;;;;;20.42;2.83;;;;;;;;;;5007046;28;20187;-77
2024/01/03 04:20:16;;;;;;;18.08;2.47;;;;;;;;;;5005180;28;20654;-77
2024/01/03 04:22:44;;;;;;;19.35;2.83;;;;;;;;;;5002334;28;20203;-76
2024/01/03 04:25:10;;;;;;;18.05;3.00;;;;;;;;;;5002065;28;20194;-76
2024/01/03 04:27:35;;;;;;;18.75;2.95;;;;;;;;;;5007834;28;20191;-76
2024/01/03 04:30:02;;;;;;;21.10;3.70;;;;;;;;;;5009846;28;20194;-76
2024/01/03 04:32:27;;;;;;;12.05;2.20;;;;;;;;;;4991910;28;20207;-76
2024/01/03 04:34:52;;;;;;;24.55;2.92;;;;;;;;;;5010327;28;20262;-75
2024/01/03 04:37:18;;;;;;;25.83;3.22;;;;;;;;;;5005830;28;20190;-76
2024/01/03 04:39:43;;;;;;;13.63;3.10;;;;;;;;;;5008782;28;20545;-76
2024/01/03 04:42:09;;;;;;;20.52;2.97;;;;;;;;;;5008219;28;20241;-76
2024/01/03 04:44:34;;;;;;;27.70;3.30;;;;;;;;;;4975597;28;20687;-76
2024/01/03 04:47:00;;;;;;;27.35;4.43;;;;;;;;;;5014418;28;20316;-76
2024/01/03 04:49:30;;;;;;;23.38;4.82;;;;;;;;;;5007528;28;20229;-76
2024/01/03 04:51:56;;;;;;;23.75;4.13;;;;;;;;;;5003567;28;20203;-75
2024/01/03 04:54:21;;;;;;;36.10;3.90;;;;;;;;;;4992532;28;20189;-75
2024/01/03 04:56:47;;;;;;;29.42;4.45;;;;;;;;;;5006296;28;20180;-76
2024/01/03 04:59:12;;;;;;;27.15;3.53;;;;;;;;;;5020256;28;20590;-75
2024/01/03 05:01:39;;;;;;;25.58;3.42;;;;;;;;;;4994446;28;20195;-75
2024/01/03 05:04:05;;;;;;;20.52;3.88;;;;;;;;;;5016323;28;20179;-76
2024/01/03 05:06:30;;;;;;;22.40;3.20;;;;;;;;;;4995087;28;20202;-75
2024/01/03 05:08:56;;;;;;;21.23;3.75;;;;;;;;;;5022516;28;20568;-76
2024/01/03 05:11:21;;;;;;;18.27;2.88;;;;;;;;;;5010336;28;20210;-75
2024/01/03 05:13:47;;;;;;;17.67;3.25;;;;;;;;;;5009183;28;20198;-75
2024/01/03 05:16:12;;;;;;;21.80;3.95;;;;;;;;;;5008404;28;20612;-75
2024/01/03 05:18:38;;;;;;;26.77;3.95;;;;;;;;;;5003654;28;20281;-75
2024/01/03 05:21:05;;;;;;;24.60;3.88;;;;;;;;;;5021555;28;20218;-75
2024/01/03 05:23:31;;;;;;;26.02;3.75;;;;;;;;;;5002543;28;20202;-75
2024/01/03 05:25:56;;;;;;;20.50;3.58;;;;;;;;;;5000148;28;20199;-76
2024/01/03 05:28:21;;;;;;;26.30;4.07;;;;;;;;;;5008952;28;20194;-76
2024/01/03 05:30:47;;;;;;;21.42;3.20;;;;;;;;;;5007337;28;20230;-74
2024/01/03 05:33:12;;;;;;;29.52;3.90;;;;;;;;;;5000736;28;20277;-75
2024/01/03 05:35:38;;;;;;;30.08;4.13;;;;;;;;;;5005447;28;20190;-77
2024/01/03 05:38:03;;;;;;;29.45;4.88;;;;;;;;;;5008163;28;20717;-75
2024/01/03 05:40:29;;;;;;;26.65;4.13;;;;;;;;;;4992673;28;20197;-74
2024/01/03 05:42:54;;;;;;;20.88;3.72;;;;;;;;;;5004570;28;20186;-74
2024/01/03 05:45:20;;;;;;;30.92;4.45;;;;;;;;;;5002799;28;20195;-76
2024/01/03 05:47:45;;;;;;;29.02;4.03;;;;;;;;;;5010127;28;20199;-75
2024/01/03 05:50:11;;;;;;;23.92;4.53;;;;;;;;;;5006633;28;20186;-75
2024/01/03 05:52:36;;;;;;;37.15;5.85;;;;;;;;;;5007274;28;20190;-75
2024/01/03 05:55:02;;;;;;;32.28;4.65;;;;;;;;;;5004974;28;20191;-75
2024/01/03 05:57:28;;;;;;;30.85;4.13;;;;;;;;;;5007390;28;20274;-75
2024/01/03 05:59:53;;;;;;;28.83;4.32;;;;;;;;;;5006307;28;20505;-75
2024/01/03 06:02:19;;;;;;;29.05;4.07;;;;;;;;;;5016571;28;20183;-74
2024/01/03 06:04:46;;;;;;;33.10;3.92;;;;;;;;;;5017930;28;20183;-75
2024/01/03 06:07:12;;;;;;;30.17;4.32;;;;;;;;;;5006539;28;20210;-75
2024/01/03 06:09:37;;;;;;;30.05;4.13;;;;;;;;;;4994402;28;20682;-76
2024/01/03 06:12:03;;;;;;;25.63;3.85;;;;;;;;;;5007736;28;20246;-75
2024/01/03 06:14:28;;;;;;;27.98;4.70;;;;;;;;;;5007363;28;20193;-75
2024/01/03 06:16:54;;;;;;;22.60;4.07;;;;;;;;;;5005040;28;20183;-75
2024/01/03 06:19:19;;;;;;;32.30;3.95;;;;;;;;;;5004579;28;20213;-75
2024/01/03 06:21:44;;;;;;;32.00;4.35;;;;;;;;;;5007839;28;20222;-75
2024/01/03 06:24:10;;;;;;;29.73;4.50;;;;;;;;;;5003168;28;20605;-75
2024/01/03 06:26:36;;;;;;;31.85;4.13;;;;;;;;;;5005593;28;20307;-74
2024/01/03 06:29:01;;;;;;;27.23;3.92;;;;;;;;;;5009692;28;20186;-75
2024/01/03 06:31:27;;;;;;;30.10;3.90;;;;;;;;;;5006078;28;20218;-75
2024/01/03 06:33:52;;;;;;;24.15;5.05;;;;;;;;;;5002593;28;20663;-76
2024/01/03 06:36:18;;;;;;;27.35;3.72;;;;;;;;;;5007705;28;20544;-75
2024/01/03 06:38:44;;;;;;;22.80;3.60;;;;;;;;;;5004941;28;20270;-74
2024/01/03 06:41:09;;;;;;;27.90;4.80;;;;;;;;;;5009155;28;20218;-75
2024/01/03 06:43:35;;;;;;;26.35;3.95;;;;;;;;;;5003945;28;20195;-75
2024/01/03 06:46:00;;;;;;;23.70;3.83;;;;;;;;;;5003743;28;20195;-75
2024/01/03 06:48:25;;;;;;;28.30;4.03;;;;;;;;;;5008756;28;20191;-76
2024/01/03 06:50:51;;;;;;;22.33;3.88;;;;;;;;;;5009198;28;20214;-76
2024/01/03 06:53:16;;;;;;;25.45;3.50;;;;;;;;;;5005439;28;20289;-76
2024/01/03 06:55:42;;;;;;;16.98;3.65;;;;;;;;;;5017748;28;20605;-78
2024/01/03 06:58:07;;;;;;;24.20;3.78;;;;;;;;;;5008742;28;20182;-76
2024/01/03 07:00:33;;;;;;;25.45;4.00;;;;;;;;;;5008762;28;20183;-76
2024/01/03 07:02:58;;;;;;;18.15;3.75;;;;;;;;;;5013326;28;20187;-76
2024/01/03 07:05:24;;;;;;;22.40;4.65;;;;;;;;;;5008565;28;20286;-77
2024/01/03 07:07:49;;;;;;;17.05;3.22;;;;;;;;;;5009158;28;20186;-76
2024/01/03 07:10:15;;;;;;;14.30;2.95;;;;;;;;;;5008599;28;20183;-76
2024/01/03 07:12:40;;;;;;;19.80;3.50;;;;;;;;;;5008372;28;20206;-76
2024/01/03 07:15:06;;;;;;;17.13;3.08;;;;;;;;;;5006338;28;20229;-76
2024/01/03 07:17:31;;;;;;;18.15;2.80;;;;;;;;;;5011531;28;20650;-77
2024/01/03 07:19:57;;;;;;;18.73;2.70;;;;;;;;;;5012709;28;20219;-76
2024/01/03 07:22:23;;;;;;;19.02;2.83;;;;;;;;;;5012902;28;20274;-76
2024/01/03 07:24:49;;;;;;;14.18;2.72;;;;;;;;;;5028285;28;20468;-75
2024/01/03 07:27:15;;;;;;;13.93;3.00;;;;;;;;;;5030033;28;20186;-77
2024/01/03 07:29:41;;;;;;;16.30;3.65;;;;;;;;;;5025252;28;20234;-77
2024/01/03 07:32:07;;;;;;;18.73;4.32;;;;;;;;;;5029774;28;20203;-75
2024/01/03 07:34:32;;;;;;;11.13;3.05;;;;;;;;;;5009965;28;20264;-76
2024/01/03 07:36:58;;;;;;;17.20;3.33;;;;;;;;;;5010091;28;20187;-76
2024/01/03 07:39:23;;;;;;;19.67;3.20;;;;;;;;;;5011838;28;20247;-75
2024/01/03 07:41:49;;;;;;;14.70;2.60;;;;;;;;;;5029359;28;20240;-75
2024/01/03 07:44:15;;;;;;;14.75;3.42;;;;;;;;;;5017382;28;20190;-76
2024/01/03 07:46:40;;;;;;;19.30;3.38;;;;;;;;;;5028951;28;20630;-77
2024/01/03 07:49:05;;;;;;;15.25;3.10;;;;;;;;;;5034317;28;20193;-76
2024/01/03 07:51:33;;;;;;;16.08;3.65;;;;;;;;;;5020824;28;20220;-76
2024/01/03 07:53:58;;;;;;;15.02;3.17;;;;;;;;;;5021433;28;20544;-77
2024/01/03 07:56:24;;;;;;;12.13;2.25;;;;;;;;;;5012185;28;20182;-76
2024/01/03 07:58:50;;;;;;;14.25;2.65;;;;;;;;;;5028688;28;20190;-76
2024/01/03 08:01:16;;;;;;;10.48;2.83;;;;;;;;;;5019764;28;20675;-75
2024/01/03 08:03:41;;;;;;;8.27;2.15;;;;;;;;;;5028245;28;20194;-75
2024/01/03 08:06:07;;;;;;;10.27;2.58;;;;;;;;;;5005950;28;20190;-77
2024/01/03 08:08:33;;;;;;;12.30;2.20;;;;;;;;;;5028345;28;20190;-76
2024/01/03 08:10:59;;;;;;;11.95;3.15;;;;;;;;;;5017899;28;20362;-77
2024/01/03 08:13:24;;;;;;;12.75;2.33;;;;;;;;;;5001074;28;20297;-77
2024/01/03 08:15:50;;;;;;;15.88;2.63;;;;;;;;;;5029129;28;20217;-76
2024/01/03 08:18:15;;;;;;;16.55;2.85;;;;;;;;;;5021045;28;20215;-76
2024/01/03 08:20:41;;;;;;;11.00;2.10;;;;;;;;;;5024485;28;20312;-78
2024/01/03 08:23:06;;;;;;;10.90;1.77;;;;;;;;;;5012777;28;20681;-76
2024/01/03 08:25:32;;;;;;;9.57;1.67;;;;;;;;;;5009289;28;20182;-78
2024/01/03 08:27:57;;;;;;;7.72;1.65;;;;;;;;;;5030913;28;20197;-76
2024/01/03 08:30:22;;;;;;;9.90;1.60;;;;;;;;;;5030707;28;20190;-77
2024/01/03 08:32:48;;;;;;;6.63;1.83;;;;;;;;;;5012605;28;20244;-77
2024/01/03 08:35:13;;;;;;;6.70;1.20;;;;;;;;;;5012309;28;20186;-75
2024/01/03 08:37:39;;;;;;;8.50;1.88;;;;;;;;;;5011220;28;20193;-76
2024/01/03 08:40:05;;;;;;;6.22;1.20;;;;;;;;;;5028778;28;20497;-76
2024/01/03 08:42:31;;;;;;;4.40;0.75;;;;;;;;;;5024054;28;20197;-77
2024/01/03 08:44:58;;;;;;;7.55;0.98;;;;;;;;;;5030069;28;20178;-77
2024/01/03 08:47:23;;;;;;;5.00;0.95;;;;;;;;;;5011636;28;20202;-76
2024/01/03 08:49:48;;;;;;;6.45;1.15;;;;;;;;;;5013915;28;20544;-76
2024/01/03 08:52:14;;;;;;;4.18;0.88;;;;;;;;;;5029853;28;20198;-76
2024/01/03 08:54:40;;;;;;;7.07;1.27;;;;;;;;;;5029986;28;20193;-77
2024/01/03 08:57:08;;;;;;;7.95;1.45;;;;;;;;;;5014320;28;20187;-78
2024/01/03 08:59:35;;;;;;;4.63;1.80;;;;;;;;;;5011312;28;20289;-76
2024/01/03 09:02:01;;;;;;;5.15;1.25;;;;;;;;;;4994462;28;20256;-78
2024/01/03 09:04:26;;;;;;;11.57;1.48;;;;;;;;;;5013975;28;20190;-77
2024/01/03 09:06:52;;;;;;;10.25;1.25;;;;;;;;;;5011489;28;20182;-75
2024/01/03 09:09:18;;;;;;;8.77;2.30;;;;;;;;;;5021784;28;20192;-75
2024/01/03 09:11:43;;;;;;;7.10;1.13;;;;;;;;;;5012659;28;20292;-77
2024/01/03 09:14:09;;;;;;;6.57;1.40;;;;;;;;;;4996888;28;20198;-76
2024/01/03 09:16:35;;;;;;;10.88;2.08;;;;;;;;;;5036256;28;20243;-75
2024/01/03 09:19:02;;;;;;;6.30;1.23;;;;;;;;;;5030219;28;20206;-75
2024/01/03 09:21:28;;;;;;;7.90;1.15;;;;;;;;;;5028861;28;20350;-76
2024/01/03 09:23:53;;;;;;;9.82;1.67;;;;;;;;;;5002794;28;20197;-77
2024/01/03 09:26:20;;;;;;;10.57;1.60;;;;;;;;;;5015816;28;20190;-76
2024/01/03 09:28:47;;;;;;;8.13;1.60;;;;;;;;;;5029792;28;20186;-75
2024/01/03 09:31:12;;;;;;;16.58;2.60;;;;;;;;;;4994137;28;20210;-74
2024/01/03 09:33:38;;;;;;;6.78;1.70;;;;;;;;;;5025347;28;20637;-76
2024/01/03 09:36:04;;;;;;;12.05;2.10;;;;;;;;;;5026133;28;20190;-75
2024/01/03 09:38:30;;;;;;;9.77;1.88;;;;;;;;;;5027758;28;20875;-75
2024/01/03 09:40:57;;;;;;;14.70;3.00;;;;;;;;;;4992083;28;20179;-74
2024/01/03 09:43:22;;;;;;;10.68;2.03;;;;;;;;;;5028831;28;20189;-75
2024/01/03 09:45:48;;;;;;;9.40;1.90;;;;;;;;;;5029508;28;20194;-75
2024/01/03 09:48:14;;;;;;;12.13;2.15;;;;;;;;;;5028413;28;20229;-75
2024/01/03 09:50:39;;;;;;;11.45;2.00;;;;;;;;;;5009143;28;20218;-74
2024/01/03 09:53:06;;;;;;;9.95;2.47;;;;;;;;;;5001776;28;20231;-76
2024/01/03 09:55:34;;;;;;;11.98;2.65;;;;;;;;;;5027388;28;20186;-76
2024/01/03 09:58:00;;;;;;;11.88;2.45;;;;;;;;;;5002179;28;20208;-78
2024/01/03 10:00:30;;;;;;;14.63;2.83;;;;;;;;;;5027222;28;21212;-79
2024/01/03 10:03:07;;;;;;;14.95;2.92;;;;;;;;;;5014740;28;20296;-78
2024/01/03 10:05:32;;;;;;;11.43;3.30;;;;;;;;;;5032688;28;20262;-79
2024/01/03 10:07:58;;;;;;;14.35;2.70;;;;;;;;;;5034356;28;20209;-78
2024/01/03 10:10:36;;;;;;;12.27;2.75;;;;;;;;;;5017609;28;20201;-80
2024/01/03 10:13:28;;;;;;;14.30;3.08;;;;;;;;;;5016059;28;20258;-78
2024/01/03 10:15:54;;;;;;;15.73;3.17;;;;;;;;;;4994477;28;20293;-77
2024/01/03 10:18:21;;;;;;;16.05;3.50;;;;;;;;;;5033632;28;20241;-78
2024/01/03 10:20:47;;;;;;;19.23;3.55;;;;;;;;;;5010590;28;20295;-79
2024/01/03 10:23:15;;;;;;;14.70;3.15;;;;;;;;;;4995756;28;20285;-80
2024/01/03 10:25:42;;;;;;;14.15;2.90;;;;;;;;;;5023952;28;20190;-78
2024/01/03 10:28:10;;;;;;;17.92;3.03;;;;;;;;;;4984328;28;20210;-78
2024/01/03 10:30:36;;;;;;;12.18;3.13;;;;;;;;;;4996487;28;20198;-79
2024/01/03 10:33:03;;;;;;;18.33;4.15;;;;;;;;;;5010153;28;20245;-78
2024/01/03 10:35:30;;;;;;;19.50;4.10;;;;;;;;;;5012250;28;20189;-78
2024/01/03 10:37:57;;;;;;;11.30;2.88;;;;;;;;;;4993226;28;20633;-78
2024/01/03 10:40:30;;;;;;;15.55;3.45;;;;;;;;;;5006516;28;20340;-79
2024/01/03 10:42:56;;;;;;;17.83;3.50;;;;;;;;;;5007457;28;20199;-77
2024/01/03 10:45:22;;;;;;;17.35;3.47;;;;;;;;;;5019752;28;20191;-76
2024/01/03 10:47:49;;;;;;;15.63;3.45;;;;;;;;;;5006668;28;20211;-78
2024/01/03 10:50:14;;;;;;;15.55;3.03;;;;;;;;;;5016206;28;20190;-77
2024/01/03 10:52:44;;;;;;;14.93;2.67;;;;;;;;;;5008174;28;20297;-76
2024/01/03 10:55:24;;;;;;;16.63;3.17;;;;;;;;;;5002575;28;20194;-77
2024/01/03 10:58:06;;;;;;;13.60;2.65;;;;;;;;;;5007199;28;20182;-77
2024/01/03 11:00:43;;;;;;;12.13;3.10;;;;;;;;;;4984342;28;20206;-78
2024/01/03 11:03:46;;;;;;;14.02;2.58;;;;;;;;;;5006366;28;20186;-77
2024/01/03 11:06:34;;;;;;;13.77;3.03;;;;;;;;;;5003557;28;20198;-78
2024/01/03 11:09:04;;;;;;;12.10;2.30;;;;;;;;;;4645257;28;10000082;-78
2024/01/03 11:11:29;;;;;;;13.25;2.53;;;;;;;;;;5011142;28;20301;-78
2024/01/03 11:13:58;;;;;;;10.13;2.10;;;;;;;;;;4996197;28;20285;-79
2024/01/03 11:16:38;;;;;;;8.55;1.65;;;;;;;;;;5002112;28;20222;-78
2024/01/03 11:19:08;;;;;;;6.05;1.90;;;;;;;;;;4993164;28;20633;-78
2024/01/03 11:21:35;;;;;;;5.38;1.48;;;;;;;;;;5004788;28;20706;-77
2024/01/03 11:24:01;;;;;;;4.90;1.52;;;;;;;;;;5008359;28;20253;-78
2024/01/03 11:26:51;;;;;;;6.18;1.70;;;;;;;;;;5007297;28;20190;-78
2024/01/03 11:29:35;;;;;;;7.47;1.63;;;;;;;;;;4989575;28;20187;-76
2024/01/03 11:32:14;;;;;;;4.50;1.02;;;;;;;;;;4996865;28;20338;-77
2024/01/03 11:34:46;;;;;;;5.13;1.23;;;;;;;;;;4999680;28;20194;-76
2024/01/03 11:37:12;;;;;;;4.55;0.80;;;;;;;;;;5013670;28;20274;-76
2024/01/03 11:39:42;;;;;;;2.65;1.05;;;;;;;;;;5002070;28;20330;-76
2024/01/03 11:42:08;;;;;;;3.97;0.82;;;;;;;;;;4999119;28;20203;-77
2024/01/03 11:44:34;;;;;;;3.83;0.77;;;;;;;;;;4661407;28;10000120;-79
2024/01/03 11:47:00;;;;;;;5.15;0.88;;;;;;;;;;5007904;28;20186;-78
2024/01/03 11:49:25;;;;;;;4.40;1.10;;;;;;;;;;5009633;28;20705;-76
2024/01/03 11:51:52;;;;;;;2.55;0.95;;;;;;;;;;4995288;28;20210;-77
2024/01/03 11:54:17;;;;;;;5.28;1.35;;;;;;;;;;5006416;28;20219;-77
2024/01/03 11:56:43;;;;;;;9.27;1.70;;;;;;;;;;4999724;28;20245;-78
2024/01/03 11:59:09;;;;;;;11.68;2.45;;;;;;;;;;5005945;28;20191;-77
2024/01/03 12:01:34;;;;;;;15.95;2.30;;;;;;;;;;5009694;28;20272;-77
2024/01/03 12:04:13;;;;;;;15.02;2.58;;;;;;;;;;5007635;28;20274;-77
2024/01/03 12:06:41;;;;;;;13.75;2.45;;;;;;;;;;5009427;28;20218;-77
2024/01/03 12:09:07;;;;;;;17.92;2.33;;;;;;;;;;5008974;28;20179;-77
2024/01/03 12:11:34;;;;;;;17.25;2.58;;;;;;;;;;5009771;28;20559;-76
2024/01/03 12:14:00;;;;;;;22.27;3.15;;;;;;;;;;5006691;28;20555;-75
2024/01/03 12:16:25;;;;;;;21.52;2.97;;;;;;;;;;5009401;28;20190;-78
2024/01/03 12:18:53;;;;;;;20.42;3.35;;;;;;;;;;5015172;28;20284;-76
2024/01/03 12:21:18;;;;;;;19.70;2.92;;;;;;;;;;4998106;28;20317;-78
2024/01/03 12:24:04;;;;;;;22.75;4.03;;;;;;;;;;4994614;28;20281;-77
2024/01/03 12:26:30;;;;;;;18.50;3.35;;;;;;;;;;5013520;28;20213;-77
2024/01/03 12:29:02;;;;;;;25.38;4.50;;;;;;;;;;4991410;28;20529;-77
2024/01/03 12:31:28;;;;;;;17.73;3.47;;;;;;;;;;5004033;28;20207;-76
2024/01/03 12:34:03;;;;;;;20.08;3.75;;;;;;;;;;5002335;28;20253;-77
2024/01/03 12:36:29;;;;;;;20.55;3.55;;;;;;;;;;5009170;28;20188;-76
2024/01/03 12:39:00;;;;;;;27.08;3.80;;;;;;;;;;5008305;28;20222;-77
2024/01/03 12:41:26;;;;;;;21.83;3.88;;;;;;;;;;4990499;28;20642;-76
2024/01/03 12:43:51;;;;;;;21.52;3.58;;;;;;;;;;5011144;28;20198;-76
2024/01/03 12:46:17;;;;;;;28.60;3.95;;;;;;;;;;5019303;28;20199;-75
2024/01/03 12:48:44;;;;;;;25.50;4.10;;;;;;;;;;5010251;28;20195;-76
2024/01/03 12:51:10;;;;;;;24.73;3.72;;;;;;;;;;5010258;28;20252;-76
2024/01/03 12:53:36;;;;;;;23.38;3.65;;;;;;;;;;5011037;28;20191;-75
2024/01/03 12:56:02;;;;;;;28.17;4.25;;;;;;;;;;4991554;28;20517;-76
2024/01/03 12:58:27;;;;;;;22.05;3.50;;;;;;;;;;5007109;28;20191;-76
2024/01/03 13:00:53;;;;;;;21.88;3.83;;;;;;;;;;5013320;28;20213;-75
2024/01/03 13:03:18;;;;;;;19.50;3.25;;;;;;;;;;5032796;28;20190;-76
2024/01/03 13:05:44;;;;;;;23.27;3.65;;;;;;;;;;5013064;28;20271;-76
2024/01/03 13:08:09;;;;;;;25.00;3.95;;;;;;;;;;5025643;28;20442;-76
2024/01/03 13:10:35;;;;;;;30.63;4.55;;;;;;;;;;5008906;28;20202;-75
2024/01/03 13:13:02;;;;;;;27.73;4.78;;;;;;;;;;5009717;28;20276;-76
2024/01/03 13:15:27;;;;;;;31.98;4.32;;;;;;;;;;5011963;28;20280;-75
2024/01/03 13:17:53;;;;;;;25.88;4.40;;;;;;;;;;5014705;28;20264;-76
2024/01/03 13:20:18;;;;;;;32.85;4.47;;;;;;;;;;5007954;28;20227;-76
2024/01/03 13:22:44;;;;;;;31.33;5.25;;;;;;;;;;5010458;28;20190;-75
2024/01/03 13:25:10;;;;;;;28.92;4.82;;;;;;;;;;5008703;28;20640;-77
2024/01/03 13:27:36;;;;;;;26.25;4.25;;;;;;;;;;4986518;28;20254;-76
2024/01/03 13:30:02;;;;;;;32.72;4.50;;;;;;;;;;5000509;28;20222;-76
2024/01/03 13:32:27;;;;;;;31.17;4.72;;;;;;;;;;5020518;28;20218;-75
2024/01/03 13:34:52;;;;;;;22.90;4.28;;;;;;;;;;4990535;28;20190;-75
2024/01/03 13:37:18;;;;;;;36.08;5.32;;;;;;;;;;5009615;28;20182;-76
2024/01/03 13:39:43;;;;;;;25.35;4.38;;;;;;;;;;5000769;28;20219;-75
2024/01/03 13:42:09;;;;;;;29.80;4.35;;;;;;;;;;5023834;28;20205;-75
2024/01/03 13:44:35;;;;;;;28.88;4.15;;;;;;;;;;5008807;28;20717;-75
2024/01/03 13:47:01;;;;;;;23.35;4.00;;;;;;;;;;4316107;28;10000071;-76
2024/01/03 13:49:26;;;;;;;24.77;4.78;;;;;;;;;;5011819;28;20190;-75
2024/01/03 13:51:53;;;;;;;27.42;5.32;;;;;;;;;;5004555;28;20246;-76
2024/01/03 13:54:19;;;;;;;22.05;4.22;;;;;;;;;;5006303;28;20191;-75
2024/01/03 13:56:44;;;;;;;19.27;3.38;;;;;;;;;;5002285;28;20693;-75
2024/01/03 13:59:10;;;;;;;21.52;4.43;;;;;;;;;;4996358;28;20209;-75
2024/01/03 14:01:35;;;;;;;26.08;3.67;;;;;;;;;;5015947;28;20186;-75
2024/01/03 14:04:01;;;;;;;22.05;3.45;;;;;;;;;;4999805;28;20341;-74
2024/01/03 14:06:27;;;;;;;22.92;3.30;;;;;;;;;;5005231;28;20267;-76
2024/01/03 14:08:52;;;;;;;22.63;3.92;;;;;;;;;;5018027;28;20195;-75
2024/01/03 14:11:23;;;;;;;23.88;4.10;;;;;;;;;;5005082;28;20218;-77
2024/01/03 14:13:49;;;;;;;22.88;3.75;;;;;;;;;;4991450;28;20206;-77
2024/01/03 14:16:15;;;;;;;21.98;3.90;;;;;;;;;;5001799;28;20183;-78
2024/01/03 14:18:40;;;;;;;16.83;3.30;;;;;;;;;;4983121;28;20214;-78
2024/01/03 14:21:07;;;;;;;26.05;4.20;;;;;;;;;;5007463;28;20646;-78
2024/01/03 14:23:35;;;;;;;23.38;4.50;;;;;;;;;;4988296;28;20362;-77
2024/01/03 14:26:02;;;;;;;24.35;4.20;;;;;;;;;;5017103;28;20191;-77
2024/01/03 14:28:30;;;;;;;30.15;4.85;;;;;;;;;;5004430;28;20213;-78